Terminal Aerodrome Forecast
Issued by NWS Tulsa, OK

Home | Current Version | Previous Version | Text Only | Print | Product List | Glossary On
Versions: 1 2 3 4 5 6 7 8 9 10 11 12 13 14 15 16
115
FTUS44 KTSA 240520
TAFFSM
TAF
KFSM 240520Z 2406/2506 10009KT P6SM SCT250
     FM241600 15014G22KT P6SM BKN050
      TEMPO 2418/2421 3SM TSRA OVC025CB
     FM242100 17014G21KT P6SM -SHRA OVC025=

USA.gov is the U.S. government's official web portal to all federal, state and local government web resources and services.